Time;durP1;ratioP1;P1;durP2;ratioP2;P2;SDS_P1;SDS_P2;PMS_P1;PMS_P2;Temp;Humidity;BMP_temperature;BMP_pressure;BME280_temperature;BME280_humidity;BME280_pressure;Samples;Min_cycle;Max_cycle;Signal;HPM_P1;HPM_P2
2022/12/10 00:01:16;;;;;;;34.13;24.03;;;;;;;0.77;100.00;151567.34;5073281;28;20410;-76
2022/12/10 00:04:03;;;;;;;34.73;22.73;;;;;;;0.72;100.00;151554.50;5087545;28;20810;-76
2022/12/10 00:06:48;;;;;;;38.23;25.97;;;;;;;0.80;100.00;151573.75;5080269;28;20445;-76
2022/12/10 00:09:34;;;;;;;32.73;23.27;;;;;;;0.76;100.00;151564.81;5074510;28;20433;-77
2022/12/10 00:12:19;;;;;;;34.83;22.90;;;;;;;0.74;100.00;151559.66;5079316;28;20449;-76
2022/12/10 00:15:05;;;;;;;37.70;25.00;;;;;;;0.77;100.00;151567.34;5080161;28;20468;-77
2022/12/10 00:17:52;;;;;;;34.30;24.47;;;;;;;0.81;100.00;151576.34;5074937;28;20502;-76
2022/12/10 00:20:37;;;;;;;36.07;25.03;;;;;;;0.77;100.00;151567.34;5088479;28;20511;-76
2022/12/10 00:23:23;;;;;;;32.80;23.50;;;;;;;0.77;100.00;151567.34;5073840;28;20452;-76
2022/12/10 00:26:10;;;;;;;36.00;25.20;;;;;;;0.80;100.00;151575.03;5074118;28;21003;-76
2022/12/10 00:28:56;;;;;;;31.23;23.17;;;;;;;0.78;100.00;151568.63;5073753;28;20610;-76
2022/12/10 00:31:42;;;;;;;32.97;23.93;;;;;;;0.76;100.00;151563.50;5078054;28;20821;-77
2022/12/10 00:34:29;;;;;;;29.90;22.80;;;;;;;0.77;100.00;151567.34;5070849;28;20469;-77
2022/12/10 00:37:14;;;;;;;39.20;25.30;;;;;;;0.76;100.00;151564.81;5073362;28;20958;-76
2022/12/10 00:39:59;;;;;;;36.57;23.20;;;;;;;0.71;100.00;151550.66;5087410;28;20445;-77
2022/12/10 00:42:45;;;;;;;31.10;22.37;;;;;;;0.70;100.00;151549.38;5084717;28;20626;-76
2022/12/10 00:45:31;;;;;;;34.70;25.03;;;;;;;0.75;100.00;151560.91;5093644;28;20412;-76
2022/12/10 00:48:16;;;;;;;34.17;22.67;;;;;;;0.71;100.00;151550.66;5092425;28;20448;-77
2022/12/10 00:51:05;;;;;;;34.90;23.93;;;;;;;0.73;100.00;151557.09;5074984;28;20436;-76
2022/12/10 00:53:53;;;;;;;33.97;22.97;;;;;;;0.70;100.00;151549.38;5072644;28;20547;-76
2022/12/10 00:56:38;;;;;;;37.10;24.17;;;;;;;0.69;100.00;151545.53;5088016;28;20424;-77
2022/12/10 00:59:24;;;;;;;36.90;24.27;;;;;;;0.69;100.00;151545.53;5093161;28;20440;-76
2022/12/10 01:02:09;;;;;;;27.30;21.20;;;;;;;0.68;100.00;151542.97;5075794;28;20944;-76
2022/12/10 01:04:54;;;;;;;31.57;22.60;;;;;;;0.76;100.00;151564.81;5080848;28;20419;-77
2022/12/10 01:07:41;;;;;;;35.03;25.33;;;;;;;0.72;100.00;151554.50;5077692;28;20555;-76
2022/12/10 01:10:26;;;;;;;35.50;24.10;;;;;;;0.71;100.00;151550.66;5092519;28;20440;-76
2022/12/10 01:13:12;;;;;;;32.03;22.03;;;;;;;0.70;100.00;151549.38;5085268;28;20461;-76
2022/12/10 01:15:57;;;;;;;31.90;23.20;;;;;;;0.74;100.00;151559.66;5078339;28;20494;-77
2022/12/10 01:18:43;;;;;;;31.90;22.80;;;;;;;0.78;100.00;151569.91;5079816;28;20870;-77
2022/12/10 01:21:30;;;;;;;29.10;22.27;;;;;;;0.71;100.00;151551.97;5084958;28;20430;-77
2022/12/10 01:24:16;;;;;;;27.43;21.83;;;;;;;0.70;100.00;151548.09;5091978;28;20429;-77
2022/12/10 01:27:03;;;;;;;33.70;24.40;;;;;;;0.72;100.00;151554.50;5073731;28;20448;-76
2022/12/10 01:29:48;;;;;;;38.70;24.13;;;;;;;0.70;100.00;151549.38;5072700;28;20472;-76
2022/12/10 01:32:33;;;;;;;34.40;22.20;;;;;;;0.70;100.00;151549.38;5078439;28;20477;-76
2022/12/10 01:35:19;;;;;;;31.90;23.60;;;;;;;0.70;100.00;151549.38;5077665;28;20456;-76
2022/12/10 01:38:06;;;;;;;35.00;22.60;;;;;;;0.73;100.00;151557.09;5071980;28;21034;-76
2022/12/10 01:40:52;;;;;;;31.97;20.83;;;;;;;0.75;100.00;151562.22;5071956;28;20818;-76
2022/12/10 01:43:53;;;;;;;33.73;22.87;;;;;;;0.79;100.00;151572.50;5083421;28;20491;-76
2022/12/10 01:46:40;;;;;;;31.57;21.37;;;;;;;0.76;100.00;151564.81;5087843;28;20431;-76
2022/12/10 01:49:27;;;;;;;29.10;22.80;;;;;;;0.71;100.00;151551.97;5090419;28;20521;-76
2022/12/10 01:52:13;;;;;;;33.47;23.27;;;;;;;0.71;100.00;151551.97;5086665;28;20441;-76
2022/12/10 01:54:59;;;;;;;30.83;23.17;;;;;;;0.74;100.00;151559.66;5082612;28;20802;-76
2022/12/10 01:57:45;;;;;;;34.67;21.60;;;;;;;0.70;100.00;151548.09;5093838;28;20790;-77
2022/12/10 02:00:32;;;;;;;31.80;22.83;;;;;;;0.72;100.00;151553.22;5079952;28;20457;-76
2022/12/10 02:03:22;;;;;;;28.63;22.10;;;;;;;0.74;100.00;151559.66;5089932;28;20451;-76
2022/12/10 02:06:17;;;;;;;30.50;21.20;;;;;;;0.80;100.00;151575.03;5083561;28;20413;-76
2022/12/10 02:09:08;;;;;;;29.47;21.60;;;;;;;0.75;100.00;151562.22;5085254;28;20491;-76
2022/12/10 02:12:02;;;;;;;29.33;22.97;;;;;;;0.71;100.00;151551.97;5079554;28;20583;-76
2022/12/10 02:14:54;;;;;;;37.73;21.83;;;;;;;0.68;100.00;151544.25;5090527;28;20460;-76
2022/12/10 02:17:43;;;;;;;29.57;22.20;;;;;;;0.66;100.00;151539.13;5090661;28;20401;-76
2022/12/10 02:20:31;;;;;;;31.47;21.40;;;;;;;0.68;100.00;151542.97;5086034;28;20927;-76
2022/12/10 02:23:23;;;;;;;31.30;21.90;;;;;;;0.67;100.00;151540.38;5089777;28;20566;-76
2022/12/10 02:26:14;;;;;;;34.50;22.53;;;;;;;0.67;100.00;151541.66;5085147;28;20928;-76
2022/12/10 02:29:08;;;;;;;34.63;21.93;;;;;;;0.66;100.00;151539.13;5079282;28;20539;-75
2022/12/10 02:31:56;;;;;;;31.00;22.17;;;;;;;0.68;100.00;151542.97;5080718;28;20495;-75
2022/12/10 02:34:44;;;;;;;34.37;23.53;;;;;;;0.70;100.00;151548.09;5088727;28;20468;-76
2022/12/10 02:37:33;;;;;;;31.57;21.67;;;;;;;0.77;100.00;151567.34;5085141;28;20726;-76
2022/12/10 02:40:20;;;;;;;35.00;23.10;;;;;;;0.66;100.00;151539.13;5088899;28;20598;-76
2022/12/10 02:43:09;;;;;;;31.30;21.17;;;;;;;0.64;100.00;151533.94;5090120;28;20440;-76
2022/12/10 02:45:57;;;;;;;28.93;20.93;;;;;;;0.70;100.00;151548.09;5089253;28;20471;-76
2022/12/10 02:48:43;;;;;;;32.80;22.00;;;;;;;0.64;100.00;151533.94;5079521;28;20453;-76
2022/12/10 02:51:28;;;;;;;32.17;22.33;;;;;;;0.65;100.00;151536.53;5082647;28;20448;-75
2022/12/10 02:54:34;;;;;;;30.10;21.53;;;;;;;0.65;100.00;151535.25;5090714;28;20539;-76
2022/12/10 02:57:29;;;;;;;34.07;22.30;;;;;;;0.66;100.00;151537.84;5082960;28;20778;-76
2022/12/10 03:00:18;;;;;;;31.23;22.13;;;;;;;0.60;100.00;151523.72;5072250;28;20398;-76
2022/12/10 03:03:25;;;;;;;33.33;23.03;;;;;;;0.61;100.00;151527.53;5074428;28;20526;-76
2022/12/10 03:06:15;;;;;;;30.53;22.20;;;;;;;0.57;100.00;151517.28;5078187;28;20902;-76
2022/12/10 03:09:03;;;;;;;29.73;21.00;;;;;;;0.53;100.00;151505.75;5081957;28;20452;-76
2022/12/10 03:11:51;;;;;;;29.50;20.10;;;;;;;0.51;100.00;151500.56;5091219;28;20464;-76
2022/12/10 03:14:37;;;;;;;28.40;21.90;;;;;;;0.56;100.00;151514.69;5081697;28;20862;-76
2022/12/10 03:17:22;;;;;;;31.80;23.40;;;;;;;0.62;100.00;151528.81;5086608;28;20431;-76
2022/12/10 03:20:12;;;;;;;31.63;22.20;;;;;;;0.64;100.00;151533.94;5081516;28;20448;-76
2022/12/10 03:22:58;;;;;;;28.77;21.10;;;;;;;0.64;100.00;151533.94;5087107;28;20441;-75
2022/12/10 03:25:45;;;;;;;36.70;24.03;;;;;;;0.59;100.00;151521.13;5086096;28;20444;-76
2022/12/10 03:28:33;;;;;;;28.50;20.87;;;;;;;0.59;100.00;151522.41;5086590;28;20982;-75
2022/12/10 03:31:19;;;;;;;30.87;21.40;;;;;;;0.59;100.00;151522.41;5072439;28;20489;-75
2022/12/10 03:34:05;;;;;;;29.87;21.33;;;;;;;0.58;100.00;151518.59;5089053;28;20990;-76
2022/12/10 03:36:52;;;;;;;28.80;21.97;;;;;;;0.60;100.00;151525.00;5091079;28;20464;-75
2022/12/10 03:39:38;;;;;;;36.07;22.23;;;;;;;0.55;100.00;151512.16;5082411;28;20802;-75
2022/12/10 03:42:24;;;;;;;34.20;23.00;;;;;;;0.57;100.00;151516.00;5079288;28;20453;-75
2022/12/10 03:45:10;;;;;;;30.83;22.17;;;;;;;0.58;100.00;151518.59;5074822;28;20456;-76
2022/12/10 03:47:55;;;;;;;31.10;20.40;;;;;;;0.65;100.00;151536.53;5086884;28;20435;-76
2022/12/10 03:50:40;;;;;;;32.90;22.00;;;;;;;0.57;100.00;151516.00;5088195;28;20507;-77
2022/12/10 03:53:27;;;;;;;31.80;21.50;;;;;;;0.53;100.00;151505.75;5074733;28;20428;-76
2022/12/10 03:56:13;;;;;;;31.33;20.73;;;;;;;0.52;100.00;151503.16;5090123;28;20964;-76
2022/12/10 03:58:58;;;;;;;31.30;21.57;;;;;;;0.52;100.00;151503.16;5094240;28;20455;-77
2022/12/10 04:01:43;;;;;;;31.03;20.70;;;;;;;0.53;100.00;151505.75;5074495;28;20852;-77
2022/12/10 04:04:29;;;;;;;32.00;22.50;;;;;;;0.56;100.00;151513.41;5075332;28;20496;-76
2022/12/10 04:07:14;;;;;;;28.13;20.90;;;;;;;0.54;100.00;151509.59;5089637;28;21188;-76
2022/12/10 04:10:01;;;;;;;30.93;20.63;;;;;;;0.57;100.00;151517.28;5090613;28;20436;-76
2022/12/10 04:16:26;;;;;;;28.37;19.70;;;;;;;0.55;100.00;151510.88;5093635;28;20444;-76
2022/12/10 04:18:57;;;;;;;29.00;20.73;;;;;;;0.54;100.00;151509.59;5089564;28;20947;-77
2022/12/10 04:27:51;;;;;;;27.80;20.60;;;;;;;0.55;100.00;151510.88;5079177;28;20511;-76
2022/12/10 04:30:36;;;;;;;28.93;19.77;;;;;;;0.55;100.00;151510.88;5074266;28;20433;-76
2022/12/10 04:33:22;;;;;;;24.53;19.07;;;;;;;0.55;100.00;151510.88;5074740;28;20924;-77
2022/12/10 04:36:08;;;;;;;28.57;20.07;;;;;;;0.56;100.00;151513.41;5086721;28;20464;-77
2022/12/10 04:38:53;;;;;;;28.17;19.50;;;;;;;0.56;100.00;151513.41;5086011;28;20444;-77
2022/12/10 04:41:39;;;;;;;28.77;19.80;;;;;;;0.57;100.00;151516.00;5088170;28;20535;-77
2022/12/10 04:44:26;;;;;;;29.93;21.20;;;;;;;0.57;100.00;151516.00;5082578;28;20464;-77
2022/12/10 04:47:12;;;;;;;26.93;18.73;;;;;;;0.57;100.00;151516.00;5091144;28;20521;-77
2022/12/10 04:49:57;;;;;;;29.70;20.07;;;;;;;0.58;100.00;151518.59;5094208;28;20413;-77
2022/12/10 04:52:42;;;;;;;28.27;19.70;;;;;;;0.57;100.00;151516.00;5075725;28;20465;-77
2022/12/10 04:55:28;;;;;;;27.63;19.90;;;;;;;0.60;100.00;151523.72;5085860;28;20452;-77
2022/12/10 04:58:13;;;;;;;26.93;20.23;;;;;;;0.63;100.00;151530.13;5093829;28;20432;-76
2022/12/10 05:01:04;;;;;;;24.90;18.40;;;;;;;0.61;100.00;151527.53;5079307;28;20525;-76
2022/12/10 05:03:49;;;;;;;26.67;18.90;;;;;;;0.60;100.00;151525.00;5078623;28;20796;-77
2022/12/10 05:06:35;;;;;;;26.93;19.70;;;;;;;0.59;100.00;151521.13;5082683;28;20478;-76
2022/12/10 05:09:22;;;;;;;28.23;19.53;;;;;;;0.59;100.00;151521.13;5088552;28;20457;-77
2022/12/10 05:12:08;;;;;;;24.70;19.03;;;;;;;0.57;100.00;151517.28;5076828;28;20436;-76
2022/12/10 05:14:53;;;;;;;29.67;21.10;;;;;;;0.60;100.00;151525.00;5092654;28;20443;-76
2022/12/10 05:17:40;;;;;;;24.40;19.23;;;;;;;0.61;100.00;151526.25;5092214;28;20774;-76
2022/12/10 05:20:25;;;;;;;32.43;21.23;;;;;;;0.53;100.00;151505.75;5086856;28;20467;-76
2022/12/10 05:23:27;;;;;;;25.77;18.70;;;;;;;0.58;100.00;151518.59;5084937;28;20456;-76
2022/12/10 05:26:14;;;;;;;26.53;19.40;;;;;;;0.51;100.00;151500.56;5093673;28;20931;-77
2022/12/10 05:29:00;;;;;;;26.83;19.53;;;;;;;0.50;100.00;151499.28;5075889;28;20939;-77
2022/12/10 05:31:45;;;;;;;25.97;19.70;;;;;;;0.51;100.00;151500.56;5076224;28;20979;-76
2022/12/10 05:34:32;;;;;;;27.80;19.70;;;;;;;0.44;100.00;151482.63;5072979;28;20429;-77
2022/12/10 05:37:17;;;;;;;28.27;19.93;;;;;;;0.40;100.00;151472.31;5074014;28;20429;-77
2022/12/10 05:40:04;;;;;;;24.43;19.40;;;;;;;0.37;100.00;151465.91;5080633;28;20436;-77
2022/12/10 05:42:49;;;;;;;25.87;19.60;;;;;;;0.37;100.00;151464.66;5072455;28;20449;-77
2022/12/10 05:45:34;;;;;;;30.80;19.87;;;;;;;0.39;100.00;151469.78;5072927;28;20499;-77
2022/12/10 05:48:19;;;;;;;27.23;19.33;;;;;;;0.39;100.00;151471.09;5090671;28;20456;-76
2022/12/10 05:51:07;;;;;;;31.00;20.57;;;;;;;0.37;100.00;151464.66;5085932;28;20439;-76
2022/12/10 05:53:54;;;;;;;30.77;21.67;;;;;;;0.31;100.00;151450.53;5084927;28;20464;-76
2022/12/10 05:56:39;;;;;;;24.87;19.43;;;;;;;0.30;100.00;151446.66;5070699;28;20461;-76
2022/12/10 05:59:24;;;;;;;28.83;20.77;;;;;;;0.31;100.00;151449.25;5089748;28;20447;-76
2022/12/10 06:02:10;;;;;;;30.13;21.17;;;;;;;0.33;100.00;151454.38;5089240;28;20448;-77
2022/12/10 06:04:55;;;;;;;30.27;21.20;;;;;;;0.37;100.00;151464.66;5091999;28;20483;-77
2022/12/10 06:07:42;;;;;;;30.50;21.77;;;;;;;0.34;100.00;151458.25;5090667;28;20452;-76
2022/12/10 06:10:27;;;;;;;31.17;20.50;;;;;;;0.31;100.00;151449.25;5083253;28;20470;-76
2022/12/10 06:13:13;;;;;;;29.80;21.43;;;;;;;0.23;100.00;151430.00;5069676;28;20453;-76
2022/12/10 06:15:58;;;;;;;28.53;19.67;;;;;;;0.29;100.00;151444.13;5077028;28;20797;-76
2022/12/10 06:18:44;;;;;;;35.60;21.73;;;;;;;0.18;100.00;151417.19;5090052;28;20909;-77
2022/12/10 06:21:29;;;;;;;31.43;21.03;;;;;;;0.22;100.00;151426.13;5080647;28;20657;-76
2022/12/10 06:24:16;;;;;;;31.60;20.40;;;;;;;0.18;100.00;151417.19;5080008;28;20472;-76
2022/12/10 06:27:01;;;;;;;30.77;20.90;;;;;;;0.27;100.00;151438.97;5081918;28;20402;-76
2022/12/10 06:29:46;;;;;;;31.13;20.70;;;;;;;0.14;100.00;151405.59;5073381;28;20550;-77
2022/12/10 06:32:32;;;;;;;32.33;21.70;;;;;;;0.18;100.00;151415.88;5081218;28;20464;-76
2022/12/10 06:35:17;;;;;;;29.47;20.30;;;;;;;0.12;100.00;151401.75;5079725;28;20819;-76
2022/12/10 06:38:03;;;;;;;29.60;21.17;;;;;;;0.12;100.00;151401.75;5086654;28;20444;-76
2022/12/10 06:40:51;;;;;;;36.93;20.97;;;;;;;0.10;100.00;151395.34;5078833;28;20440;-76
2022/12/10 06:43:37;;;;;;;32.07;22.27;;;;;;;0.08;100.00;151390.22;5083140;28;20502;-76
2022/12/10 06:46:22;;;;;;;31.30;21.87;;;;;;;0.08;100.00;151390.22;5075448;28;20433;-77
2022/12/10 06:49:09;;;;;;;30.70;19.70;;;;;;;0.15;100.00;151408.19;5073132;28;20456;-75
2022/12/10 06:51:57;;;;;;;31.57;20.97;;;;;;;0.12;100.00;151400.47;5080259;28;20466;-76
2022/12/10 06:54:43;;;;;;;31.53;19.57;;;;;;;0.09;100.00;151392.75;5072180;28;20951;-76
2022/12/10 06:57:29;;;;;;;28.10;19.83;;;;;;;0.07;100.00;151388.94;5083315;28;20424;-75
2022/12/10 07:00:15;;;;;;;32.60;20.73;;;;;;;0.07;100.00;151388.94;5074024;28;20437;-76
2022/12/10 07:03:01;;;;;;;24.40;18.50;;;;;;;0.11;100.00;151397.94;5085513;28;20445;-76
2022/12/10 07:05:48;;;;;;;35.03;21.77;;;;;;;0.03;100.00;151377.41;5078374;28;20426;-76
2022/12/10 07:08:33;;;;;;;29.50;20.67;;;;;;;0.03;100.00;151377.41;5071707;28;20499;-76
2022/12/10 07:11:21;;;;;;;29.87;20.63;;;;;;;0.05;100.00;151382.50;5083927;28;20482;-76
2022/12/10 07:14:09;;;;;;;26.17;19.00;;;;;;;0.04;100.00;151379.94;5072264;28;20523;-76
2022/12/10 07:16:54;;;;;;;28.70;19.60;;;;;;;0.06;100.00;151385.06;5090070;28;20591;-76
2022/12/10 07:19:39;;;;;;;32.83;21.73;;;;;;;0.11;100.00;151399.16;5090099;28;20456;-76
2022/12/10 07:22:25;;;;;;;27.57;19.60;;;;;;;0.12;100.00;151400.47;5091413;28;20429;-76
2022/12/10 07:25:11;;;;;;;28.97;20.77;;;;;;;0.07;100.00;151388.94;5090252;28;20482;-76
2022/12/10 07:27:56;;;;;;;29.13;20.17;;;;;;;0.05;100.00;151382.50;5091157;28;20530;-76
2022/12/10 07:30:43;;;;;;;28.70;20.80;;;;;;;0.10;100.00;151395.34;5080142;28;20441;-75
2022/12/10 07:33:29;;;;;;;28.07;19.20;;;;;;;0.10;100.00;151395.34;5080547;28;20445;-75
2022/12/10 07:36:14;;;;;;;30.57;20.37;;;;;;;0.13;100.00;151403.06;5077785;28;20460;-76
2022/12/10 07:38:59;;;;;;;30.07;21.30;;;;;;;0.10;100.00;151395.34;5080911;28;20468;-76
2022/12/10 07:41:45;;;;;;;28.27;18.97;;;;;;;0.15;100.00;151409.47;5080836;28;21006;-76
2022/12/10 07:44:30;;;;;;;27.63;19.17;;;;;;;0.16;100.00;151412.00;5078580;28;20451;-76
2022/12/10 07:47:17;;;;;;;28.80;20.40;;;;;;;0.15;100.00;151409.47;5078874;28;20871;-77
2022/12/10 07:50:03;;;;;;;29.83;20.90;;;;;;;0.18;100.00;151415.88;5091739;28;20432;-77
2022/12/10 07:52:48;;;;;;;28.60;21.10;;;;;;;0.16;100.00;151410.75;5077885;28;20490;-76
2022/12/10 07:55:33;;;;;;;32.90;22.27;;;;;;;0.18;100.00;151415.88;5076019;28;20513;-77
2022/12/10 07:58:18;;;;;;;28.77;20.10;;;;;;;0.16;100.00;151410.75;5078595;28;20495;-76
2022/12/10 08:01:07;;;;;;;30.27;21.67;;;;;;;0.20;100.00;151421.00;5078954;28;20440;-76
2022/12/10 08:03:56;;;;;;;28.50;19.30;;;;;;;0.24;100.00;151431.28;5087606;28;20777;-76
2022/12/10 08:06:41;;;;;;;30.97;20.00;;;;;;;0.26;100.00;151437.72;5074050;28;20437;-76
2022/12/10 08:09:27;;;;;;;29.63;20.43;;;;;;;0.32;100.00;151453.06;5083285;28;20606;-76
2022/12/10 08:12:12;;;;;;;29.43;19.13;;;;;;;0.29;100.00;151444.13;5073763;28;20467;-76
2022/12/10 08:14:58;;;;;;;33.00;22.03;;;;;;;0.34;100.00;151458.25;5089308;28;20448;-77
2022/12/10 08:17:43;;;;;;;27.10;20.53;;;;;;;0.28;100.00;151442.84;5094104;28;20569;-76
2022/12/10 08:20:29;;;;;;;26.77;18.83;;;;;;;0.28;100.00;151441.53;5084120;28;20940;-76
2022/12/10 08:23:16;;;;;;;28.83;18.90;;;;;;;0.29;100.00;151445.38;5079753;28;20911;-76
2022/12/10 08:26:04;;;;;;;26.47;20.63;;;;;;;0.24;100.00;151431.28;5073411;28;20885;-76
2022/12/10 08:28:50;;;;;;;32.03;21.40;;;;;;;0.30;100.00;151447.97;5086727;28;20538;-76
2022/12/10 08:31:35;;;;;;;31.77;20.90;;;;;;;0.32;100.00;151451.84;5092567;28;20558;-76
2022/12/10 08:34:21;;;;;;;27.17;19.50;;;;;;;0.34;100.00;151456.97;5073598;28;20444;-76
2022/12/10 08:37:07;;;;;;;32.07;21.80;;;;;;;0.33;100.00;151455.66;5077826;28;20978;-76
2022/12/10 08:39:52;;;;;;;28.10;19.70;;;;;;;0.38;100.00;151467.19;5085891;28;20955;-76
2022/12/10 08:42:38;;;;;;;28.50;20.03;;;;;;;0.37;100.00;151465.91;5073792;28;20535;-76
2022/12/10 08:45:23;;;;;;;30.50;21.10;;;;;;;0.43;100.00;151480.03;5072926;28;20482;-76
2022/12/10 08:48:08;;;;;;;29.57;20.33;;;;;;;0.33;100.00;151454.38;5080314;28;20837;-76
2022/12/10 08:50:53;;;;;;;32.33;21.83;;;;;;;0.29;100.00;151445.38;5074374;28;20538;-76
2022/12/10 08:53:40;;;;;;;28.67;20.90;;;;;;;0.35;100.00;151459.50;5074060;28;20448;-76
2022/12/10 08:56:26;;;;;;;28.57;19.07;;;;;;;0.41;100.00;151474.91;5081871;28;20491;-77
2022/12/10 08:59:11;;;;;;;33.23;21.60;;;;;;;0.44;100.00;151482.63;5082349;28;20919;-76
2022/12/10 09:01:57;;;;;;;30.90;20.20;;;;;;;0.38;100.00;151467.19;5086649;28;20448;-76
2022/12/10 09:04:42;;;;;;;28.80;21.60;;;;;;;0.32;100.00;151451.84;5089857;28;20451;-76
2022/12/10 09:07:29;;;;;;;31.37;22.00;;;;;;;0.34;100.00;151458.25;5090850;28;20448;-77
2022/12/10 09:10:16;;;;;;;30.87;19.70;;;;;;;0.38;100.00;151467.19;5075481;28;20436;-76
2022/12/10 09:13:04;;;;;;;31.70;21.27;;;;;;;0.38;100.00;151467.19;5081293;28;20464;-76
2022/12/10 09:15:53;;;;;;;31.43;22.50;;;;;;;0.40;100.00;151473.63;5091374;28;20433;-76
2022/12/10 09:18:38;;;;;;;30.70;21.70;;;;;;;0.36;100.00;151462.09;5079892;28;20966;-76
2022/12/10 09:21:24;;;;;;;33.07;21.00;;;;;;;0.40;100.00;151472.31;5080501;28;20433;-77
2022/12/10 09:24:10;;;;;;;29.80;21.30;;;;;;;0.42;100.00;151478.78;5081351;28;20832;-77
2022/12/10 09:26:56;;;;;;;30.77;21.53;;;;;;;0.44;100.00;151483.91;5074523;28;20514;-76
2022/12/10 09:29:42;;;;;;;34.17;21.57;;;;;;;0.47;100.00;151490.34;5079195;28;20441;-77
2022/12/10 09:32:27;;;;;;;30.60;21.47;;;;;;;0.50;100.00;151499.28;5086393;28;20471;-76
2022/12/10 09:35:12;;;;;;;31.40;21.80;;;;;;;0.52;100.00;151504.47;5080267;28;20949;-76
2022/12/10 09:37:58;;;;;;;34.73;22.90;;;;;;;0.49;100.00;151495.44;5073240;28;20493;-76
2022/12/10 09:40:48;;;;;;;32.97;22.13;;;;;;;0.45;100.00;151486.44;5072821;28;20449;-76
2022/12/10 09:43:45;;;;;;;31.43;22.40;;;;;;;0.51;100.00;151501.88;5084967;28;20791;-76
2022/12/10 09:46:41;;;;;;;32.63;22.90;;;;;;;0.47;100.00;151490.34;5074022;28;20517;-76
2022/12/10 09:49:34;;;;;;;29.27;21.03;;;;;;;0.49;100.00;151495.44;5079830;28;20448;-76
2022/12/10 09:52:22;;;;;;;31.70;21.53;;;;;;;0.51;100.00;151501.88;5080232;28;20452;-76
2022/12/10 09:55:11;;;;;;;32.33;21.83;;;;;;;0.53;100.00;151507.00;5086465;28;20961;-76
2022/12/10 09:57:57;;;;;;;32.23;20.17;;;;;;;0.59;100.00;151521.13;5085938;28;20529;-76
2022/12/10 10:00:46;;;;;;;31.83;21.23;;;;;;;0.60;100.00;151525.00;5075225;28;20445;-78
2022/12/10 10:03:35;;;;;;;32.73;20.93;;;;;;;0.59;100.00;151521.13;5079578;28;20452;-76
2022/12/10 10:06:23;;;;;;;28.37;19.10;;;;;;;0.62;100.00;151528.81;5075201;28;20444;-75
2022/12/10 10:09:18;;;;;;;28.37;20.10;;;;;;;0.64;100.00;151533.94;5086443;28;20441;-76
2022/12/10 10:12:15;;;;;;;30.70;21.10;;;;;;;0.64;100.00;151533.94;5083758;28;20525;-75
2022/12/10 10:15:11;;;;;;;25.90;19.47;;;;;;;0.65;100.00;151536.53;5088844;28;20590;-76
2022/12/10 10:18:05;;;;;;;28.33;19.80;;;;;;;0.69;100.00;151546.78;5083184;28;20456;-76
2022/12/10 10:20:53;;;;;;;29.03;21.47;;;;;;;0.69;100.00;151546.78;5080677;28;20440;-76
2022/12/10 10:23:49;;;;;;;26.83;19.97;;;;;;;0.78;100.00;151568.63;5085890;28;20653;-76
2022/12/10 10:26:35;;;;;;;30.00;19.83;;;;;;;0.74;100.00;151558.38;5085881;28;20464;-76
2022/12/10 10:29:26;;;;;;;29.17;20.10;;;;;;;0.79;100.00;151572.50;5088311;28;20455;-76
2022/12/10 10:32:17;;;;;;;31.20;20.33;;;;;;;0.80;100.00;151575.03;5084268;28;20468;-76
2022/12/10 10:35:11;;;;;;;23.50;18.53;;;;;;;0.80;100.00;151575.03;5082436;28;20906;-76
2022/12/10 10:38:20;;;;;;;29.63;19.60;;;;;;;0.84;100.00;151584.06;5088426;28;20456;-76
2022/12/10 10:41:31;;;;;;;31.30;18.67;;;;;;;0.77;100.00;151566.09;5086142;28;20436;-76
2022/12/10 10:44:17;;;;;;;28.60;18.60;;;;;;;0.84;100.00;151584.06;5080915;28;20444;-76
2022/12/10 10:47:05;;;;;;;27.63;20.67;;;;;;;0.80;100.00;151575.03;5082781;28;20951;-76
2022/12/10 10:49:51;;;;;;;28.40;20.60;;;;;;;0.86;100.00;151590.47;5076087;28;20451;-76
2022/12/10 10:52:39;;;;;;;29.77;20.50;;;;;;;0.87;100.00;151593.06;5089237;28;20439;-76
2022/12/10 10:55:36;;;;;;;24.70;17.20;;;;;;;0.88;100.00;151594.31;5089020;28;20571;-76
2022/12/10 10:58:22;;;;;;;25.70;18.83;;;;;;;0.90;100.00;151600.72;5084655;28;20470;-76
2022/12/10 11:01:08;;;;;;;24.97;18.73;;;;;;;0.94;100.00;151611.03;5087503;28;20897;-76
2022/12/10 11:03:56;;;;;;;26.30;18.37;;;;;;;0.97;100.00;151618.72;5086023;28;20604;-76
2022/12/10 11:06:42;;;;;;;27.67;18.17;;;;;;;0.99;100.00;151622.56;5084119;28;20437;-76
2022/12/10 11:09:30;;;;;;;24.97;17.40;;;;;;;0.99;100.00;151623.84;5084986;28;20757;-76
2022/12/10 11:12:36;;;;;;;28.60;19.93;;;;;;;0.98;100.00;151621.28;5087595;28;20420;-76
2022/12/10 11:15:40;;;;;;;26.57;19.53;;;;;;;0.95;100.00;151612.31;5087170;28;20614;-76
2022/12/10 11:18:30;;;;;;;26.63;18.47;;;;;;;0.98;100.00;151620.03;5091817;28;20448;-76
2022/12/10 11:21:19;;;;;;;25.80;19.37;;;;;;;1.03;100.00;151634.09;5090036;28;20927;-76
2022/12/10 11:24:12;;;;;;;25.33;18.50;;;;;;;1.05;100.00;151639.28;5085692;28;20445;-76
2022/12/10 11:27:04;;;;;;;27.63;19.07;;;;;;;1.03;100.00;151634.09;5088885;28;20907;-76
2022/12/10 11:29:56;;;;;;;22.47;17.00;;;;;;;1.06;100.00;151640.56;5079746;28;20579;-76
2022/12/10 11:33:02;;;;;;;25.77;18.90;;;;;;;1.03;100.00;151634.09;5081685;28;20596;-76
2022/12/10 11:35:52;;;;;;;23.20;16.97;;;;;;;1.07;100.00;151644.41;5086274;28;20448;-76
2022/12/10 11:38:44;;;;;;;24.47;17.60;;;;;;;1.12;100.00;151655.97;5087672;28;20461;-76
2022/12/10 11:41:33;;;;;;;22.43;17.13;;;;;;;1.04;100.00;151636.69;5090655;28;20943;-77
2022/12/10 11:44:27;;;;;;;27.47;19.60;;;;;;;1.01;100.00;151628.97;5102933;28;20445;-76
2022/12/10 11:47:30;;;;;;;25.63;19.40;;;;;;;1.05;100.00;151639.28;5086486;28;20514;-76
2022/12/10 11:50:22;;;;;;;27.60;18.37;;;;;;;1.02;100.00;151630.28;5077788;28;20456;-75
2022/12/10 11:53:20;;;;;;;25.63;17.80;;;;;;;1.02;100.00;151631.56;5080941;28;20947;-76
2022/12/10 11:56:13;;;;;;;28.20;18.40;;;;;;;1.05;100.00;151639.28;5089512;28;20440;-76
2022/12/10 11:59:05;;;;;;;24.50;17.20;;;;;;;1.09;100.00;151648.25;5088637;28;20440;-76
2022/12/10 12:02:16;;;;;;;21.83;17.33;;;;;;;1.08;100.00;151647.00;5090594;28;20437;-76
2022/12/10 12:05:20;;;;;;;25.60;18.40;;;;;;;1.03;100.00;151634.09;5088903;28;21011;-76
2022/12/10 12:08:17;;;;;;;22.87;16.90;;;;;;;1.10;100.00;151650.84;5085376;28;20453;-77
2022/12/10 12:11:15;;;;;;;23.60;16.63;;;;;;;1.12;100.00;151657.25;5089923;28;20613;-76
2022/12/10 12:14:03;;;;;;;25.93;17.00;;;;;;;1.14;100.00;151661.09;5092739;28;20707;-76
2022/12/10 12:16:55;;;;;;;25.10;17.20;;;;;;;1.18;100.00;151672.69;5087975;28;20488;-76
2022/12/10 12:19:46;;;;;;;22.03;15.67;;;;;;;1.08;100.00;151647.00;5089560;28;20427;-76
2022/12/10 12:22:34;;;;;;;21.80;15.47;;;;;;;1.05;100.00;151638.00;5092122;28;20555;-76
2022/12/10 12:25:24;;;;;;;21.00;14.67;;;;;;;1.06;100.00;151641.81;5093671;28;20931;-76
2022/12/10 12:28:13;;;;;;;26.50;17.13;;;;;;;1.09;100.00;151649.53;5086035;28;20570;-76
2022/12/10 12:31:02;;;;;;;24.00;16.20;;;;;;;1.10;100.00;151652.13;5085839;28;20456;-76
2022/12/10 12:33:53;;;;;;;24.43;16.93;;;;;;;1.12;100.00;151655.97;5085470;28;20800;-76
2022/12/10 12:36:40;;;;;;;22.00;15.50;;;;;;;1.10;100.00;151652.13;5086128;28;20472;-76
2022/12/10 12:39:34;;;;;;;22.73;16.10;;;;;;;1.09;100.00;151649.53;5089463;28;20831;-77
2022/12/10 12:42:25;;;;;;;25.20;16.50;;;;;;;1.22;100.00;151682.94;5088532;28;20452;-76
2022/12/10 12:45:14;;;;;;;23.10;16.03;;;;;;;1.21;100.00;151680.41;5084439;28;20502;-76
2022/12/10 12:48:03;;;;;;;22.13;15.60;;;;;;;1.18;100.00;151672.69;5093512;28;20436;-76
2022/12/10 12:50:50;;;;;;;19.40;15.10;;;;;;;1.14;99.94;151662.38;5088027;28;20465;-76
2022/12/10 12:53:37;;;;;;;21.27;15.80;;;;;;;1.06;100.00;151641.81;5091407;28;20769;-76